Time;durP1;ratioP1;P1;durP2;ratioP2;P2;SDS_P1;SDS_P2;PMS_P1;PMS_P2;Temp;Humidity;BMP_temperature;BMP_pressure;BME280_temperature;BME280_humidity;BME280_pressure;Samples;Min_cycle;Max_cycle;Signal;HPM_P1;HPM_P2
2023/12/24 00:01:58;;;;;;;12.10;5.90;;;;;;;;;;5089850;28;20030;-76
2023/12/24 00:04:24;;;;;;;10.88;5.60;;;;;;;;;;5091584;28;20383;-75
2023/12/24 00:06:50;;;;;;;9.55;6.10;;;;;;;;;;5091492;28;20020;-75
2023/12/24 00:09:16;;;;;;;9.27;5.50;;;;;;;;;;5091533;28;20024;-76
2023/12/24 00:11:42;;;;;;;10.25;5.40;;;;;;;;;;5091204;28;20085;-75
2023/12/24 00:14:08;;;;;;;8.68;5.05;;;;;;;;;;5091276;28;20024;-76
2023/12/24 00:16:39;;;;;;;8.50;5.13;;;;;;;;;;5091109;28;20089;-76
2023/12/24 00:19:05;;;;;;;12.68;6.55;;;;;;;;;;5095821;28;20020;-76
2023/12/24 00:21:31;;;;;;;7.43;5.43;;;;;;;;;;5095692;28;20047;-75
2023/12/24 00:23:57;;;;;;;8.52;6.28;;;;;;;;;;5095317;28;20062;-75
2023/12/24 00:26:23;;;;;;;7.80;5.65;;;;;;;;;;5095288;28;20103;-75
2023/12/24 00:28:51;;;;;;;8.90;6.20;;;;;;;;;;5095160;28;20032;-75
2023/12/24 00:31:17;;;;;;;10.43;5.93;;;;;;;;;;5094847;28;20023;-75
2023/12/24 00:33:43;;;;;;;10.25;6.95;;;;;;;;;;5093485;28;20028;-75
2023/12/24 00:36:09;;;;;;;6.63;4.93;;;;;;;;;;5095273;28;20024;-76
2023/12/24 00:38:35;;;;;;;10.73;6.28;;;;;;;;;;5094756;28;20027;-75
2023/12/24 00:41:00;;;;;;;8.15;5.88;;;;;;;;;;5094704;28;20024;-75
2023/12/24 00:43:26;;;;;;;8.73;5.45;;;;;;;;;;5094917;28;20052;-77
2023/12/24 00:45:52;;;;;;;7.45;5.15;;;;;;;;;;5095430;28;20463;-77
2023/12/24 00:48:18;;;;;;;9.77;5.30;;;;;;;;;;5094992;28;20028;-76
2023/12/24 00:50:44;;;;;;;8.05;5.68;;;;;;;;;;5094609;28;20055;-75
2023/12/24 00:53:10;;;;;;;7.15;5.40;;;;;;;;;;5094743;28;20100;-76
2023/12/24 00:55:37;;;;;;;7.63;5.75;;;;;;;;;;5095048;28;20048;-77
2023/12/24 00:58:03;;;;;;;8.07;6.13;;;;;;;;;;5094596;28;20046;-77
2023/12/24 01:00:29;;;;;;;9.48;6.93;;;;;;;;;;5093548;28;20556;-76
2023/12/24 01:02:55;;;;;;;9.45;6.90;;;;;;;;;;5110951;28;20024;-76
2023/12/24 01:05:21;;;;;;;8.57;7.13;;;;;;;;;;5104590;28;20047;-76
2023/12/24 01:07:47;;;;;;;9.18;6.97;;;;;;;;;;5094647;28;20102;-76
2023/12/24 01:10:13;;;;;;;8.65;6.82;;;;;;;;;;5094462;28;20071;-75
2023/12/24 01:12:39;;;;;;;10.45;7.15;;;;;;;;;;5093897;28;20079;-75
2023/12/24 01:15:05;;;;;;;9.50;7.13;;;;;;;;;;5094703;28;20024;-75
2023/12/24 01:17:31;;;;;;;11.63;6.95;;;;;;;;;;5098000;28;20024;-77
2023/12/24 01:19:58;;;;;;;9.55;6.90;;;;;;;;;;5099594;28;20459;-75
2023/12/24 01:22:24;;;;;;;10.13;7.00;;;;;;;;;;5105384;28;20468;-73
2023/12/24 01:24:50;;;;;;;11.13;8.05;;;;;;;;;;5097682;28;20108;-74
2023/12/24 01:27:16;;;;;;;11.88;8.02;;;;;;;;;;5097663;28;20052;-74
2023/12/24 01:29:42;;;;;;;10.73;8.15;;;;;;;;;;5096943;28;20031;-74
2023/12/24 01:32:08;;;;;;;10.88;8.65;;;;;;;;;;5094829;28;20028;-76
2023/12/24 01:34:34;;;;;;;10.18;8.25;;;;;;;;;;5092721;28;20035;-76
2023/12/24 01:37:00;;;;;;;11.05;8.32;;;;;;;;;;5093907;28;20055;-75
2023/12/24 01:39:26;;;;;;;14.10;9.60;;;;;;;;;;5093771;28;20475;-74
2023/12/24 01:41:52;;;;;;;15.10;10.68;;;;;;;;;;5093484;28;20016;-75
2023/12/24 01:44:18;;;;;;;13.85;10.50;;;;;;;;;;5093665;28;20391;-75
2023/12/24 01:46:45;;;;;;;16.30;11.70;;;;;;;;;;5093706;28;20023;-75
2023/12/24 01:49:12;;;;;;;15.48;10.77;;;;;;;;;;5093629;28;20024;-75
2023/12/24 01:51:38;;;;;;;16.02;10.93;;;;;;;;;;5093390;28;20024;-75
2023/12/24 01:54:04;;;;;;;15.50;10.52;;;;;;;;;;5092121;28;20035;-77
2023/12/24 01:56:31;;;;;;;14.20;10.48;;;;;;;;;;5094089;28;20109;-77
2023/12/24 01:58:58;;;;;;;10.32;7.90;;;;;;;;;;5093406;28;20406;-75
2023/12/24 02:01:24;;;;;;;10.00;7.28;;;;;;;;;;5093301;28;20434;-76
2023/12/24 02:03:50;;;;;;;9.48;6.47;;;;;;;;;;5093699;28;20082;-75
2023/12/24 02:06:17;;;;;;;5.85;4.22;;;4.40;73.70;;;;;;5093043;28;20035;-76
2023/12/24 02:08:44;;;;;;;4.57;3.15;;;7.30;99.90;;;;;;5093229;28;20047;-76
2023/12/24 02:11:09;;;;;;;3.97;2.35;;;7.60;99.90;;;;;;5111469;28;20023;-76
2023/12/24 02:13:35;;;;;;;2.10;1.33;;;7.60;99.90;;;;;;5113230;28;20024;-76
2023/12/24 02:16:02;;;;;;;2.20;1.50;;;7.70;99.90;;;;;;5113088;28;20027;-76
2023/12/24 02:18:28;;;;;;;1.33;0.98;;;8.10;99.90;;;;;;5111392;28;20031;-77
2023/12/24 02:21:03;;;;;;;1.10;0.85;;;8.20;99.90;;;;;;5096176;28;20020;-77
2023/12/24 02:23:29;;;;;;;;;;;8.30;99.90;;;;;;5092141;28;20471;-77
2023/12/24 02:25:57;;;;;;;1.77;0.75;;;8.50;99.90;;;;;;5095797;28;19924;-77
2023/12/24 02:28:27;;;;;;;0.88;0.70;;;8.60;99.90;;;;;;5092703;28;20039;-76
2023/12/24 02:30:56;;;;;;;1.65;1.00;;;;;;;;;;5092826;28;20024;-76
2023/12/24 02:33:24;;;;;;;1.10;0.52;;;;;;;;;;5093349;28;20043;-76
2023/12/24 02:35:50;;;;;;;1.63;0.70;;;;;;;;;;5092028;28;20111;-77
2023/12/24 02:38:16;;;;;;;0.52;0.52;;;;;;;;;;5092481;28;20020;-76
2023/12/24 02:40:42;;;;;;;0.68;0.47;;;;;;;;;;5091505;28;20093;-76
2023/12/24 02:43:11;;;;;;;0.43;0.40;;;;;;;;;;5092192;28;20100;-76
2023/12/24 02:45:37;;;;;;;0.57;0.45;;;;;;;;;;5092784;28;20048;-75
2023/12/24 02:48:03;;;;;;;1.50;0.40;;;;;;;;;;5092271;28;20062;-77
2023/12/24 02:50:29;;;;;;;0.60;0.50;;;;;;;;;;5091761;28;20490;-77
2023/12/24 02:52:55;;;;;;;0.57;0.57;;;;;;;;;;5090870;28;20115;-77
2023/12/24 02:55:21;;;;;;;1.48;0.40;;;;;;;;;;5093121;28;20032;-77
2023/12/24 02:57:47;;;;;;;0.50;0.50;;;;;;;;;;5093099;28;20024;-77
2023/12/24 03:00:14;;;;;;;0.90;0.50;;;;;;;;;;5092208;28;20028;-75
2023/12/24 03:02:40;;;;;;;3.00;0.60;;;;;;;;;;5091521;28;20391;-76
2023/12/24 03:05:06;;;;;;;1.45;0.70;;;;;;;;;;5092251;28;20024;-77
2023/12/24 03:07:32;;;;;;;1.13;0.50;;;;;;;;;;5092815;28;20055;-76
2023/12/24 03:09:58;;;;;;;0.50;0.50;;;;;;;;;;5092122;28;20074;-76
2023/12/24 03:12:24;;;;;;;0.85;0.60;;;;;;;;;;5091897;28;20081;-75
2023/12/24 03:14:50;;;;;;;1.60;0.70;;;;;;;;;;5092057;28;20082;-76
2023/12/24 03:17:16;;;;;;;0.73;0.50;;;;;;;;;;5091915;28;20038;-75
2023/12/24 03:19:42;;;;;;;0.60;0.60;;;;;;;;;;5091869;28;20027;-76
2023/12/24 03:22:08;;;;;;;1.33;0.50;;;;;;;;;;5091695;28;20012;-76
2023/12/24 03:24:34;;;;;;;1.40;0.65;;;;;;;;;;5091829;28;20054;-77
2023/12/24 03:27:00;;;;;;;1.02;0.70;;;;;;;;;;5092495;28;20036;-75
2023/12/24 03:29:26;;;;;;;1.27;0.70;;;;;;;;;;5091847;28;20024;-76
2023/12/24 03:31:52;;;;;;;0.90;0.57;;;;;;;;;;5091466;28;20305;-75
2023/12/24 03:34:18;;;;;;;1.85;0.80;;;;;;;;;;5091671;28;20066;-76
2023/12/24 03:36:44;;;;;;;3.03;0.88;;;;;;;;;;5091708;28;20024;-75
2023/12/24 03:39:10;;;;;;;0.80;0.70;;;;;;;;;;5091716;28;20054;-75
2023/12/24 03:41:37;;;;;;;0.65;0.63;;;;;;;;;;5091525;28;20095;-76
2023/12/24 03:44:03;;;;;;;1.02;0.60;;;;;;;;;;5091553;28;20025;-76
2023/12/24 03:46:29;;;;;;;1.80;0.73;;;;;;;;;;5091582;28;20053;-75
2023/12/24 03:48:55;;;;;;;2.40;0.80;;;;;;;;;;5091613;28;20082;-76
2023/12/24 03:51:23;;;;;;;1.08;0.75;;;;;;;;;;5091392;28;20023;-76
2023/12/24 03:53:49;;;;;;;1.35;0.80;;;;;;;;;;5095460;28;20028;-76
2023/12/24 03:56:15;;;;;;;1.58;0.70;;;;;;;;;;5095864;28;20487;-77
2023/12/24 03:58:41;;;;;;;0.80;0.80;;;;;;;;;;5095554;28;20039;-77
2023/12/24 04:01:10;;;;;;;3.25;0.98;;;;;;;;;;5095603;28;20024;-76
2023/12/24 04:03:36;;;;;;;2.67;0.80;;;;;;;;;;5096276;28;20016;-77
2023/12/24 04:06:09;;;;;;;1.35;0.80;;;;;;;;;;5096788;28;20056;-76
2023/12/24 04:08:35;;;;;;;1.33;0.85;;;;;;;;;;5096585;28;20027;-76
2023/12/24 04:11:01;;;;;;;1.60;0.90;;;;;;;;;;5096561;28;20531;-76
2023/12/24 04:13:27;;;;;;;1.90;0.80;;;;;;;;;;5096837;28;20028;-77
2023/12/24 04:15:53;;;;;;;0.98;0.60;;;;;;;;;;5097077;28;20070;-76
2023/12/24 04:18:19;;;;;;;3.40;1.10;;;;;;;;;;5096076;28;20024;-76
2023/12/24 04:20:45;;;;;;;0.90;0.70;;;;;;;;;;5095967;28;20024;-75
2023/12/24 04:23:11;;;;;;;2.85;0.70;;;;;;;;;;5106533;28;20039;-79
2023/12/24 04:25:37;;;;;;;2.13;0.82;;;;;;;;;;5115459;28;20095;-78
2023/12/24 04:28:03;;;;;;;1.77;1.20;;;;;;;;;;5107234;28;20032;-78
2023/12/24 04:30:29;;;;;;;1.50;0.60;;;;;;;;;;5099454;28;20028;-76
2023/12/24 04:32:55;;;;;;;2.25;0.77;;;;;;;;;;5103638;28;20459;-77
2023/12/24 04:35:21;;;;;;;2.35;0.65;;;;;;;;;;5107778;28;20031;-77
2023/12/24 04:37:47;;;;;;;3.08;0.88;;;;;;;;;;5114780;28;20027;-76
2023/12/24 04:40:13;;;;;;;1.33;0.88;;;;;;;;;;5115907;28;20027;-76
2023/12/24 04:42:39;;;;;;;3.80;0.73;;;;;;;;;;5115204;28;20023;-76
2023/12/24 04:45:05;;;;;;;0.90;0.75;;;;;;;;;;5115634;28;20012;-76
2023/12/24 04:47:31;;;;;;;1.45;0.77;;;;;;;;;;5115521;28;20371;-75
2023/12/24 04:49:58;;;;;;;2.90;0.90;;;;;;;;;;5116938;28;20031;-76
2023/12/24 04:52:24;;;;;;;1.65;0.95;;;;;;;;;;5136100;28;20015;-75
2023/12/24 04:54:50;;;;;;;2.60;0.80;;;;;;;;;;5141073;28;20022;-75
2023/12/24 04:57:16;;;;;;;1.35;0.93;;;;;;;;;;5140094;28;20016;-76
2023/12/24 04:59:42;;;;;;;2.83;1.40;;;;;;;;;;5121933;28;20035;-76
2023/12/24 05:02:08;;;;;;;1.05;0.60;;;;;;;;;;5110511;28;20578;-77
2023/12/24 05:04:35;;;;;;;1.13;0.80;;;;;;;;;;5111804;28;20032;-76
2023/12/24 05:07:01;;;;;;;1.52;0.77;;;;;;;;;;5098104;28;20478;-77
2023/12/24 05:09:27;;;;;;;2.58;1.20;;;;;;;;;;5098719;28;20030;-77
2023/12/24 05:11:53;;;;;;;1.60;1.00;;;;;;;;;;5112925;28;20489;-76
2023/12/24 05:14:19;;;;;;;1.70;0.90;;;;;;;;;;5094209;28;20095;-77
2023/12/24 05:16:45;;;;;;;2.05;0.90;;;;;;;;;;5103754;28;20099;-77
2023/12/24 05:19:11;;;;;;;0.75;0.70;;;;;;;;;;5106037;28;20035;-77
2023/12/24 05:21:37;;;;;;;1.75;0.80;;;;;;;;;;5104006;28;20029;-77
2023/12/24 05:24:03;;;;;;;4.88;0.90;;;;;;;;;;5105682;28;20030;-77
2023/12/24 05:26:29;;;;;;;2.53;1.48;;;;;;;;;;5114984;28;20021;-77
2023/12/24 05:28:55;;;;;;;1.10;1.00;;;;;;;;;;5114599;28;20030;-77
2023/12/24 05:31:21;;;;;;;1.88;1.20;;;;;;;;;;5114447;28;20528;-77
2023/12/24 05:33:47;;;;;;;2.10;1.00;;;;;;;;;;5114812;28;20024;-78
2023/12/24 05:36:13;;;;;;;2.08;1.02;;;;;;;;;;5114314;28;20081;-77
2023/12/24 05:38:39;;;;;;;2.03;1.40;;;;;;;;;;5111783;28;20375;-77
2023/12/24 05:41:08;;;;;;;1.50;0.95;;;;;;;;;;5113571;28;20055;-78
2023/12/24 05:43:34;;;;;;;2.35;1.35;;;;;;;;;;5095403;28;20436;-76
2023/12/24 05:46:00;;;;;;;1.00;0.90;;;;;;;;;;5100528;28;20069;-76
2023/12/24 05:48:26;;;;;;;1.10;0.80;;;;;;;;;;5105267;28;20475;-77
2023/12/24 05:50:52;;;;;;;1.52;0.80;;;;;;;;;;5099271;28;20166;-76
2023/12/24 05:53:18;;;;;;;1.90;0.73;;;;;;;;;;5101833;28;20028;-76
2023/12/24 05:55:44;;;;;;;1.30;0.80;;;;;;;;;;5099516;28;20055;-76
2023/12/24 05:58:10;;;;;;;0.70;0.70;;;;;;;;;;5113045;28;20106;-76
2023/12/24 06:00:36;;;;;;;1.33;0.80;;;;;;;;;;5096534;28;20028;-76
2023/12/24 06:03:03;;;;;;;1.33;0.98;;;;;;;;;;5092981;28;20117;-77
2023/12/24 06:05:29;;;;;;;2.80;0.70;;;;;;;;;;5113071;28;20034;-77
2023/12/24 06:07:55;;;;;;;1.23;0.60;;;;;;;;;;5101135;28;20027;-76
2023/12/24 06:10:21;;;;;;;1.83;0.60;;;;;;;;;;5100880;28;20554;-78
2023/12/24 06:12:51;;;;;;;0.85;0.70;;;;;;;;;;5101809;28;20050;-78
2023/12/24 06:15:17;;;;;;;0.60;0.60;;;;;;;;;;5095479;28;20028;-76
2023/12/24 06:17:43;;;;;;;0.77;0.60;;;;;;;;;;5106529;28;20031;-78
2023/12/24 06:20:10;;;;;;;1.33;0.57;;;;;;;;;;5107760;28;20028;-76
2023/12/24 06:22:36;;;;;;;4.13;0.77;;;;;;;;;;5107102;28;20212;-77
2023/12/24 06:25:02;;;;;;;0.68;0.60;;;;;;;;;;5111263;28;20050;-78
2023/12/24 06:27:28;;;;;;;1.75;0.98;;;;;;;;;;5103975;28;20100;-77
2023/12/24 06:29:54;;;;;;;1.90;1.13;;;;;;;;;;5097695;28;20032;-76
2023/12/24 06:32:20;;;;;;;0.98;0.75;;;;;;;;;;5110552;28;20035;-76
2023/12/24 06:34:46;;;;;;;0.77;0.68;;;;;;;;;;5108611;28;20023;-77
2023/12/24 06:37:12;;;;;;;0.60;0.60;;;;;;;;;;5106800;28;20390;-76
2023/12/24 06:39:39;;;;;;;0.50;0.50;;;;;;;;;;5113949;28;20035;-76
2023/12/24 06:42:05;;;;;;;0.63;0.63;;;;;;;;;;5099854;28;20023;-76
2023/12/24 06:44:31;;;;;;;0.98;0.68;;;;;;;;;;5094598;28;20099;-75
2023/12/24 06:46:57;;;;;;;1.75;0.70;;;;;;;;;;5094378;28;20056;-75
2023/12/24 06:49:23;;;;;;;0.52;0.52;;;;;;;;;;5103122;28;20459;-77
2023/12/24 06:51:49;;;;;;;1.20;0.70;;;;;;;;;;5109657;28;20102;-76
2023/12/24 06:54:15;;;;;;;1.65;0.70;;;;;;;;;;5099481;28;20115;-77
2023/12/24 06:56:41;;;;;;;0.70;0.65;;;;;;;;;;5097871;28;20505;-77
2023/12/24 06:59:07;;;;;;;0.90;0.70;;;;;;;;;;5109386;28;20032;-77
2023/12/24 07:01:33;;;;;;;0.80;0.75;;;;;;;;;;5093635;28;20034;-79
2023/12/24 07:03:59;;;;;;;0.70;0.70;;;;;;;;;;5101409;28;20020;-77
2023/12/24 07:06:25;;;;;;;1.02;0.60;;;;;;;;;;5106220;28;20066;-75
2023/12/24 07:08:51;;;;;;;0.80;0.52;;;;;;;;;;5113806;28;20035;-77
2023/12/24 07:11:17;;;;;;;3.25;0.60;;;;;;;;;;5106536;28;20475;-77
2023/12/24 07:13:43;;;;;;;0.70;0.70;;;;;;;;;;5105730;28;20035;-78
2023/12/24 07:16:09;;;;;;;0.73;0.73;;;;;;;;;;5115352;28;20106;-77
2023/12/24 07:18:35;;;;;;;1.10;1.00;;;;;;;;;;5113607;28;20028;-76
2023/12/24 07:21:01;;;;;;;1.17;0.90;;;;;;;;;;5107307;28;20016;-75
2023/12/24 07:23:27;;;;;;;8.05;4.38;;;;;;;;;;5110746;28;20028;-76
2023/12/24 07:25:53;;;;;;;2.53;2.22;;;;;;;;;;5117845;28;20051;-76
2023/12/24 07:28:19;;;;;;;1.00;0.90;;;;;;;;;;5118258;28;20038;-77
2023/12/24 07:30:45;;;;;;;0.60;0.60;;;;;;;;;;5118831;28;20027;-77
2023/12/24 07:33:11;;;;;;;1.10;1.00;;;;;;;;;;5113592;28;20027;-76
2023/12/24 07:35:37;;;;;;;1.10;0.90;;;;;;;;;;5112822;28;20542;-76
2023/12/24 07:38:03;;;;;;;0.80;0.80;;;;;;;;;;5111923;28;20054;-77
2023/12/24 07:40:29;;;;;;;1.42;0.80;;;;;;;;;;5111916;28;20024;-76
2023/12/24 07:42:59;;;;;;;1.20;0.85;;;;;;;;;;5111949;28;20023;-76
2023/12/24 07:45:25;;;;;;;1.85;1.00;;;;;;;;;;5112481;28;20475;-77
2023/12/24 07:47:51;;;;;;;1.23;0.95;;;;;;;;;;5116917;28;20069;-76
2023/12/24 07:50:17;;;;;;;1.38;0.95;;;;;;;;;;5114015;28;20525;-78
2023/12/24 07:52:43;;;;;;;1.25;0.88;;;;;;;;;;5114630;28;20031;-76
2023/12/24 07:55:08;;;;;;;0.90;0.80;;;;;;;;;;5107539;28;20046;-75
2023/12/24 07:57:34;;;;;;;1.05;0.95;;;;;;;;;;5099887;28;20411;-77
2023/12/24 08:00:01;;;;;;;0.88;0.80;;;;;;;;;;5107720;28;20059;-75
2023/12/24 08:02:27;;;;;;;1.40;1.10;;;;;;;;;;5110739;28;20024;-78
2023/12/24 08:04:55;;;;;;;1.65;0.80;;;;;;;;;;5111905;28;20436;-77
2023/12/24 08:07:21;;;;;;;2.17;0.98;;;;;;;;;;5111183;28;20027;-76
2023/12/24 08:09:47;;;;;;;1.88;1.00;;;;;;;;;;5098651;28;20020;-75
2023/12/24 08:12:14;;;;;;;1.30;0.70;;;;;;;;;;5091206;28;20051;-77
2023/12/24 08:14:40;;;;;;;0.68;0.68;;;;;;;;;;5090764;28;20024;-81
2023/12/24 08:17:05;;;;;;;2.58;0.80;;;;;;;;;;5105372;28;20474;-80
2023/12/24 08:19:31;;;;;;;0.70;0.70;;;;;;;;;;5117316;28;20059;-77
2023/12/24 08:21:57;;;;;;;1.77;0.80;;;;;;;;;;5111161;28;20031;-76
2023/12/24 08:24:23;;;;;;;0.75;0.70;;;;;;;;;;5097232;28;20361;-76
2023/12/24 08:26:49;;;;;;;0.80;0.52;;;;;;;;;;5106371;28;20020;-77
2023/12/24 08:29:16;;;;;;;1.40;1.00;;;;;;;;;;5102470;28;20031;-74
2023/12/24 08:31:42;;;;;;;1.58;0.90;;;;;;;;;;5111328;28;20027;-76
2023/12/24 08:34:08;;;;;;;0.75;0.75;;;;;;;;;;5111149;28;20066;-77
2023/12/24 08:36:34;;;;;;;2.63;0.90;;;;;;;;;;5111504;28;20028;-76
2023/12/24 08:39:00;;;;;;;0.75;0.75;;;;;;;;;;5113343;28;20026;-77
2023/12/24 08:41:26;;;;;;;1.73;0.90;;;;;;;;;;5114664;28;20024;-76
2023/12/24 08:43:52;;;;;;;1.15;0.85;;;;;;;;;;5114885;28;20023;-78
2023/12/24 08:46:18;;;;;;;1.00;0.63;;;;;;;;;;5115466;28;20080;-77
2023/12/24 08:48:44;;;;;;;0.88;0.77;;;;;;;;;;5114552;28;20063;-79
2023/12/24 08:51:10;;;;;;;1.02;0.90;;;;;;;;;;5112757;28;20023;-78
2023/12/24 08:53:36;;;;;;;1.17;0.70;;;;;;;;;;5114708;28;20466;-77
2023/12/24 08:56:02;;;;;;;2.10;0.60;;;;;;;;;;5114765;28;20080;-78
2023/12/24 08:58:28;;;;;;;1.15;0.70;;;;;;;;;;5114535;28;20402;-78
2023/12/24 09:00:54;;;;;;;1.15;0.70;;;;;;;;;;5114101;28;20420;-77
2023/12/24 09:03:20;;;;;;;1.27;0.68;;;;;;;;;;5114453;28;20038;-75
2023/12/24 09:05:46;;;;;;;2.88;0.80;;;;;;;;;;5114661;28;20026;-76
2023/12/24 09:08:13;;;;;;;3.50;0.90;;;;;;;;;;5113253;28;20020;-78
2023/12/24 09:10:41;;;;;;;0.90;0.80;;;;;;;;;;5114073;28;20032;-77
2023/12/24 09:13:07;;;;;;;2.47;1.30;;;;;;;;;;5114384;28;20398;-78
2023/12/24 09:15:33;;;;;;;1.38;0.90;;;;;;;;;;5114385;28;20114;-78
2023/12/24 09:17:59;;;;;;;2.75;1.17;;;;;;;;;;5114592;28;20032;-77
2023/12/24 09:20:25;;;;;;;1.42;0.73;;;;;;;;;;5114291;28;20035;-78
2023/12/24 09:22:51;;;;;;;1.48;0.80;;;;;;;;;;5114474;28;20020;-77
2023/12/24 09:25:17;;;;;;;1.35;0.85;;;;;;;;;;5114408;28;20023;-77
2023/12/24 09:27:43;;;;;;;1.20;0.80;;;;;;;;;;5114308;28;20088;-76
2023/12/24 09:30:09;;;;;;;1.65;0.82;;;;;;;;;;5114570;28;20538;-77
2023/12/24 09:32:35;;;;;;;2.78;1.42;;;;;;;;;;5113856;28;20080;-75
2023/12/24 09:35:01;;;;;;;2.60;0.88;;;;;;;;;;5114640;28;20057;-78
2023/12/24 09:37:27;;;;;;;1.75;0.70;;;;;;;;;;5114013;28;20024;-77
2023/12/24 09:39:53;;;;;;;1.00;0.90;;;;;;;;;;5113978;28;20050;-77
2023/12/24 09:42:19;;;;;;;0.80;0.73;;;;;;;;;;5113226;28;20483;-77
2023/12/24 09:44:46;;;;;;;0.70;0.70;;;;;;;;;;5114031;28;20020;-77
2023/12/24 09:47:12;;;;;;;0.80;0.70;;;;;;;;;;5113903;28;20023;-77
2023/12/24 09:49:38;;;;;;;2.15;0.75;;;;;;;;;;5112808;28;20463;-77
2023/12/24 09:52:04;;;;;;;1.17;0.80;;;;;;;;;;5113347;28;20031;-76
2023/12/24 09:54:30;;;;;;;1.15;0.88;;;;;;;;;;5113473;28;20027;-75
2023/12/24 09:56:56;;;;;;;0.63;0.63;;;;;;;;;;5113905;28;20095;-77
2023/12/24 09:59:22;;;;;;;0.65;0.65;;;;;;;;;;5113798;28;20135;-77
2023/12/24 10:01:48;;;;;;;1.27;0.75;;;;;;;;;;5114086;28;20024;-75
2023/12/24 10:04:14;;;;;;;1.73;0.60;;;;;;;;;;5114294;28;20058;-75
2023/12/24 10:06:59;;;;;;;2.15;0.80;;;;;;;;;;5114250;28;20364;-76
2023/12/24 10:09:41;;;;;;;3.45;1.10;;;;;;;;;;5116472;28;20028;-74
2023/12/24 10:12:08;;;;;;;2.60;1.08;;;;;;;;;;5114427;28;20051;-74
2023/12/24 10:14:35;;;;;;;1.88;0.90;;;;;;;;;;5114428;28;20036;-76
2023/12/24 10:17:01;;;;;;;0.75;0.73;;;;;;;;;;5114045;28;20051;-75
2023/12/24 10:19:28;;;;;;;2.03;0.70;;;;;;;;;;5113379;28;20015;-77
2023/12/24 10:22:06;;;;;;;2.30;0.65;;;;;;;;;;5112890;28;20024;-77
2023/12/24 10:24:38;;;;;;;5.75;1.48;;;;;;;;;;5113514;28;20059;-77
2023/12/24 10:27:07;;;;;;;1.90;1.10;;;;;;;;;;5113919;28;20570;-75
2023/12/24 10:29:33;;;;;;;4.57;2.40;;;;;;;;;;5114028;28;20041;-77
2023/12/24 10:31:59;;;;;;;2.75;1.50;;;;;;;;;;5112999;28;20019;-76
2023/12/24 10:34:25;;;;;;;6.38;2.80;;;;;;;;;;5113979;28;20031;-77
2023/12/24 10:36:51;;;;;;;1.10;0.80;;;;;;;;;;5113961;28;20032;-77
2023/12/24 10:39:24;;;;;;;1.67;1.05;;;;;;;;;;5113876;28;20051;-77
2023/12/24 10:41:50;;;;;;;0.70;0.60;;;;;;;;;;5114213;28;20030;-77
2023/12/24 10:44:16;;;;;;;1.05;0.77;;;;;;;;;;5113098;28;20023;-77
2023/12/24 10:46:42;;;;;;;0.93;0.80;;;;;;;;;;5113168;28;20023;-77
2023/12/24 10:49:09;;;;;;;2.60;1.10;;;;;;;;;;5112687;28;20522;-75
2023/12/24 10:51:35;;;;;;;2.83;1.58;;;;;;;;;;5112055;28;20024;-76
2023/12/24 10:54:01;;;;;;;2.83;1.33;;;;;;;;;;5113183;28;20045;-75
2023/12/24 10:56:31;;;;;;;1.33;0.65;;;;;;;;;;5112836;28;20034;-74
2023/12/24 10:59:03;;;;;;;1.40;0.90;;;;;;;;;;5113824;28;20035;-76
2023/12/24 11:01:29;;;;;;;2.20;1.05;;;;;;;;;;5094353;28;20471;-76
2023/12/24 11:03:57;;;;;;;1.63;0.80;;;;;;;;;;5092741;28;20471;-76
2023/12/24 11:06:38;;;;;;;1.02;0.80;;;;;;;;;;5092350;28;20019;-75
2023/12/24 11:09:08;;;;;;;2.50;1.10;;;;;;;;;;5092542;28;20032;-76
2023/12/24 11:11:53;;;;;;;2.67;0.90;;;;;;;;;;5092215;28;20032;-77
2023/12/24 11:14:39;;;;;;;2.80;0.98;;;;;;;;;;5090813;28;20028;-76
2023/12/24 11:17:06;;;;;;;1.77;0.90;;;;;;;;;;5098976;28;20039;-77
2023/12/24 11:19:35;;;;;;;4.07;1.23;;;;;;;;;;5110909;28;20026;-76
2023/12/24 11:22:10;;;;;;;1.63;0.98;;;;;;;;;;5111200;28;20741;-74
2023/12/24 11:24:41;;;;;;;1.10;0.70;;;;;;;;;;5111386;28;20028;-76
2023/12/24 11:27:08;;;;;;;4.43;0.90;;;;;;;;;;5112045;28;20037;-76
2023/12/24 11:29:43;;;;;;;1.08;0.75;;;;;;;;;;5113186;28;20482;-76
2023/12/24 11:32:24;;;;;;;2.22;0.88;;;;;;;;;;5110783;28;20495;-75
2023/12/24 11:34:55;;;;;;;1.95;0.90;;;;;;;;;;5110725;28;20020;-76
2023/12/24 11:37:27;;;;;;;1.52;0.73;;;;;;;;;;5110532;28;20035;-77
2023/12/24 11:40:08;;;;;;;1.77;1.00;;;;;;;;;;5110550;28;20035;-75
2023/12/24 11:42:40;;;;;;;2.80;0.98;;;;;;;;;;5111247;28;20054;-77
2023/12/24 11:45:06;;;;;;;1.80;0.75;;;;;;;;;;5109432;28;20034;-75
2023/12/24 11:47:33;;;;;;;1.98;0.90;;;;;;;;;;5109922;28;20096;-75
2023/12/24 11:49:59;;;;;;;10.45;5.20;;;;;;;;;;5111944;28;20023;-75
2023/12/24 11:52:27;;;;;;;2.00;0.80;;;;;;;;;;5112297;28;20042;-75
2023/12/24 11:54:53;;;;;;;2.83;1.00;;;;;;;;;;5110583;28;20525;-75
2023/12/24 11:57:25;;;;;;;2.88;1.17;;;;;;;;;;5110761;28;20047;-75
2023/12/24 11:59:51;;;;;;;2.25;0.82;;;;;;;;;;5108847;28;20023;-77
2023/12/24 12:02:17;;;;;;;8.25;4.00;;;;;;;;;;5110492;28;20020;-77
2023/12/24 12:04:44;;;;;;;5.22;2.40;;;;;;;;;;5110852;28;20499;-77
2023/12/24 12:07:10;;;;;;;2.15;1.10;;;;;;;;;;5110273;28;20039;-78
2023/12/24 12:09:36;;;;;;;6.50;3.53;;;;;;;;;;5110875;28;20020;-78
2023/12/24 12:12:02;;;;;;;2.15;1.40;;;;;;;;;;5110294;28;20024;-74
2023/12/24 12:14:28;;;;;;;2.25;1.00;;;;;;;;;;5115002;28;20072;-77
2023/12/24 12:16:54;;;;;;;3.22;1.20;;;;;;;;;;5115370;28;20066;-76
2023/12/24 12:19:20;;;;;;;2.80;1.00;;;;;;;;;;5114375;28;20100;-77
2023/12/24 12:21:46;;;;;;;1.02;0.70;;;;;;;;;;5114084;28;20428;-77
2023/12/24 12:24:12;;;;;;;3.15;0.80;;;;;;;;;;5114314;27;20012;-76
2023/12/24 12:26:38;;;;;;;1.23;0.80;;;;;;;;;;5094422;28;20304;-76
2023/12/24 12:29:04;;;;;;;1.30;0.90;;;;;;;;;;5109504;28;20092;-75
2023/12/24 12:31:30;;;;;;;2.55;1.20;;;;;;;;;;5104429;28;20106;-77
2023/12/24 12:33:56;;;;;;;2.13;0.80;;;;;;;;;;5113867;28;20023;-75
2023/12/24 12:36:22;;;;;;;2.75;0.90;;;;;;;;;;5114390;28;20087;-76
2023/12/24 12:38:48;;;;;;;2.20;1.05;;;;;;;;;;5114318;28;20031;-76
2023/12/24 12:41:14;;;;;;;3.75;0.80;;;;;;;;;;5114321;28;20080;-76
2023/12/24 12:43:41;;;;;;;4.15;0.90;;;;;;;;;;5101010;27;20043;-75
2023/12/24 12:46:07;;;;;;;0.90;0.70;;;;;;;;;;5106641;28;20058;-78
2023/12/24 12:48:33;;;;;;;2.88;1.60;;;;;;;;;;5114895;28;20031;-77
2023/12/24 12:50:59;;;;;;;4.07;1.40;;;;;;;;;;5114062;28;20042;-77
2023/12/24 12:53:28;;;;;;;4.43;0.98;;;;;;;;;;5116208;28;20028;-77
2023/12/24 12:56:03;;;;;;;2.70;1.00;;;;;;;;;;5115194;28;20034;-77
2023/12/24 12:58:29;;;;;;;2.40;0.80;;;;;;;;;;5113042;28;20028;-77
2023/12/24 13:01:01;;;;;;;1.80;0.80;;;;;;;;;;5113727;28;20023;-78
2023/12/24 13:03:28;;;;;;;1.38;0.90;;;;;;;;;;5113665;28;20462;-76
2023/12/24 13:05:57;;;;;;;1.08;0.77;;;;;;;;;;5114070;28;20039;-75
2023/12/24 13:08:23;;;;;;;1.13;0.80;;;;;;;;;;5113543;28;20526;-75
2023/12/24 13:10:49;;;;;;;0.80;0.70;;;;;;;;;;5112492;28;20033;-78
2023/12/24 13:13:19;;;;;;;4.90;2.85;;;;;;;;;;5113233;28;20114;-75
2023/12/24 13:15:46;;;;;;;1.13;0.80;;;;;;;;;;5113508;28;20483;-76
2023/12/24 13:18:15;;;;;;;1.40;0.90;;;;;;;;;;5114075;28;20027;-74
2023/12/24 13:20:51;;;;;;;0.73;0.70;;;;;;;;;;5112890;28;20509;-75
2023/12/24 13:23:21;;;;;;;2.78;1.05;;;;;;;;;;5113133;28;20478;-75
2023/12/24 13:25:47;;;;;;;1.75;0.77;;;;;;;;;;5115470;28;20016;-78
2023/12/24 13:28:14;;;;;;;1.70;1.10;;;;;;;;;;5116593;28;20020;-77
2023/12/24 13:30:40;;;;;;;1.33;0.75;;;;;;;;;;5114169;28;20459;-78
2023/12/24 13:33:07;;;;;;;1.70;1.08;;;;;;;;;;5113938;28;20039;-77
2023/12/24 13:35:37;;;;;;;3.10;1.10;;;;;;;;;;5112925;28;20034;-77
2023/12/24 13:38:12;;;;;;;1.00;0.90;;;;;;;;;;5114210;28;20024;-77
2023/12/24 13:40:39;;;;;;;;;;;;;;;;;;5114640;28;20475;-77
2023/12/24 13:43:06;;;;;;;4.88;2.40;;;;;;;;;;5113969;28;19912;-78
2023/12/24 13:45:32;;;;;;;4.25;1.70;;;;;;;;;;5116865;28;20020;-78
2023/12/24 13:47:58;;;;;;;4.07;2.28;;;;;;;;;;5114437;28;20024;-77
2023/12/24 13:50:24;;;;;;;2.58;1.50;;;;;;;;;;5113044;28;20024;-76
2023/12/24 13:52:53;;;;;;;5.32;1.63;;;;;;;;;;5113331;28;20023;-76
2023/12/24 13:55:19;;;;;;;6.07;1.63;;;;;;;;;;5114468;28;20257;-77
2023/12/24 13:57:45;;;;;;;3.65;1.73;;;;;;;;;;5114685;28;20028;-79
2023/12/24 14:00:11;;;;;;;5.63;1.67;;;;;;;;;;5114174;28;20057;-77
2023/12/24 14:02:38;;;;;;;4.30;1.90;;;;;;;;;;5112907;28;20016;-76
2023/12/24 14:05:04;;;;;;;2.30;1.50;;;;;;;;;;5113434;28;20103;-77
2023/12/24 14:07:30;;;;;;;4.60;1.40;;;;;;;;;;5113125;28;20039;-77
2023/12/24 14:09:56;;;;;;;3.60;1.45;;;;;;;;;;5113474;28;20024;-76
2023/12/24 14:12:22;;;;;;;4.85;1.70;;;;;;;;;;5112485;28;20031;-78
2023/12/24 14:14:48;;;;;;;4.97;1.80;;;;;;;;;;5113010;28;20028;-76
2023/12/24 14:17:14;;;;;;;4.70;1.50;;;;;;;;;;5112647;28;20436;-76
2023/12/24 14:19:40;;;;;;;3.67;1.40;;;;;;;;;;5112169;28;20039;-77
2023/12/24 14:22:06;;;;;;;6.38;1.80;;;;;;;;;;5110580;28;20164;-78
2023/12/24 14:24:32;;;;;;;3.63;1.73;;;;;;;;;;5112598;28;20251;-77
2023/12/24 14:26:58;;;;;;;5.75;2.20;;;;;;;;;;5113723;28;20012;-78
2023/12/24 14:29:24;;;;;;;5.60;2.03;;;;;;;;;;5112965;28;20043;-79
2023/12/24 14:31:50;;;;;;;4.70;1.90;;;;;;;;;;5114499;28;20510;-77
2023/12/24 14:34:16;;;;;;;7.97;2.33;;;;;;;;;;5112079;28;20022;-75
2023/12/24 14:36:42;;;;;;;10.35;2.47;;;;;;;;;;5111351;28;20383;-77